Time;durP1;ratioP1;P1;durP2;ratioP2;P2;SDS_P1;SDS_P2;PMS_P1;PMS_P2;Temp;Humidity;BMP_temperature;BMP_pressure;BME280_temperature;BME280_humidity;BME280_pressure;Samples;Min_cycle;Max_cycle;Signal;HPM_P1;HPM_P2
2023/06/10 00:01:39;;;;;;;10.43;9.43;;;;;;;23.64;46.76;101340.09;5012069;28;20049;-64
2023/06/10 00:04:04;;;;;;;10.77;9.73;;;;;;;23.61;46.65;101337.78;5012005;28;20381;-63
2023/06/10 00:06:35;;;;;;;10.20;9.30;;;;;;;23.64;46.95;101340.09;5012571;28;20040;-64
2023/06/10 00:09:01;;;;;;;10.40;9.40;;;;;;;23.63;46.65;101338.44;5011480;28;20041;-64
2023/06/10 00:11:26;;;;;;;10.75;9.65;;;;;;;23.59;46.52;101335.25;5011925;28;20033;-63
2023/06/10 00:13:51;;;;;;;10.30;9.30;;;;;;;23.61;46.92;101337.78;5010174;28;20486;-63
2023/06/10 00:16:17;;;;;;;10.50;9.40;;;;;;;23.62;46.59;101337.59;5011718;28;20315;-63
2023/06/10 00:18:43;;;;;;;10.43;9.43;;;;;;;23.60;46.99;101339.56;5011314;28;20286;-63
2023/06/10 00:21:09;;;;;;;10.98;9.88;;;;;;;23.60;46.64;101336.91;5011880;28;20067;-63
2023/06/10 00:23:38;;;;;;;10.63;9.55;;;;;;;23.62;46.86;101339.41;5011385;28;20033;-64
2023/06/10 00:26:04;;;;;;;10.57;9.48;;;;;;;23.62;46.87;101350.91;5011399;28;20029;-63
2023/06/10 00:28:29;;;;;;;10.65;9.52;;;;;;;23.60;46.85;101344.88;5011516;28;20191;-63
2023/06/10 00:30:55;;;;;;;10.98;9.88;;;;;;;23.60;46.98;101342.22;5011558;28;20124;-64
2023/06/10 00:33:20;;;;;;;11.05;9.95;;;;;;;23.62;46.55;101340.25;5011640;28;20037;-62
2023/06/10 00:35:46;;;;;;;10.68;9.68;;;;;;;23.63;46.78;101341.09;5011435;28;20030;-63
2023/06/10 00:38:13;;;;;;;10.85;9.77;;;;;;;23.61;46.75;101343.09;5010952;28;20112;-63
2023/06/10 00:40:40;;;;;;;10.43;9.43;;;;;;;23.61;46.77;101351.06;5011300;28;20034;-64
2023/06/10 00:43:06;;;;;;;10.90;9.75;;;;;;;23.61;46.26;101345.75;5011565;28;20812;-63
2023/06/10 00:45:31;;;;;;;10.27;9.25;;;;;;;23.62;46.79;101348.22;5011450;28;20766;-65
2023/06/10 00:47:57;;;;;;;11.10;10.10;;;;;;;23.60;46.52;101350.22;5010954;28;20413;-63
2023/06/10 00:50:22;;;;;;;11.05;10.00;;;;;;;23.62;46.51;101350.06;5010299;28;20037;-64
2023/06/10 00:52:48;;;;;;;10.30;9.30;;;;;;;23.60;46.68;101346.72;5011760;28;20460;-64
2023/06/10 00:55:16;;;;;;;10.40;9.40;;;;;;;23.59;46.82;101345.91;5010930;28;20430;-62
2023/06/10 00:57:44;;;;;;;11.05;9.45;;;;;;;23.60;46.29;101338.75;5011654;28;20025;-61
2023/06/10 01:00:10;;;;;;;10.60;9.40;;;;;;;23.61;46.62;101340.44;5010980;28;20485;-64
2023/06/10 01:02:35;;;;;;;11.13;10.02;;;;;;;23.59;46.27;101345.03;5011106;28;20045;-63
2023/06/10 01:05:03;;;;;;;10.13;9.13;;;;;;;23.59;46.39;101339.72;5011554;28;20026;-64
2023/06/10 01:07:37;;;;;;;10.75;9.73;;;;;;;23.58;46.40;101341.56;5011256;28;20095;-63
2023/06/10 01:10:16;;;;;;;10.82;9.82;;;;;;;23.61;46.36;101348.41;5010803;28;20397;-62
2023/06/10 01:12:46;;;;;;;11.15;10.05;;;;;;;23.59;46.40;101337.06;5011465;28;20026;-63
2023/06/10 01:15:13;;;;;;;11.07;9.98;;;;;;;23.61;46.52;101337.78;5011245;28;20041;-63
2023/06/10 01:17:55;;;;;;;10.60;9.52;;;;;;;23.59;46.42;101342.38;5011006;28;20026;-65
2023/06/10 01:20:20;;;;;;;10.60;9.52;;;;;;;23.59;46.45;101340.56;5010680;28;20034;-63
2023/06/10 01:22:47;;;;;;;11.30;10.20;;;;;;;23.60;46.67;101350.22;5010519;28;20087;-65
2023/06/10 01:25:13;;;;;;;10.18;9.10;;;;;;;23.61;46.34;101343.91;5010667;28;20057;-64
2023/06/10 01:27:41;;;;;;;10.80;9.80;;;;;;;23.61;46.77;101353.72;5011071;28;20068;-62
2023/06/10 01:30:17;;;;;;;10.52;9.48;;;;;;;23.59;46.25;101345.91;5010393;28;20041;-66
2023/06/10 01:32:49;;;;;;;10.60;9.50;;;;;;;23.60;46.60;101349.38;5010850;28;20041;-63
2023/06/10 01:35:15;;;;;;;10.35;9.35;;;;;;;23.61;46.42;101345.75;5010731;28;20042;-62
2023/06/10 01:37:45;;;;;;;10.65;9.65;;;;;;;23.59;46.65;101353.03;5011090;28;20052;-64
2023/06/10 01:40:11;;;;;;;10.60;9.60;;;;;;;23.59;46.10;101350.34;5010560;28;20025;-64
2023/06/10 01:42:37;;;;;;;10.85;9.80;;;;;;;23.59;46.63;101351.22;5010591;28;20367;-64
2023/06/10 01:45:03;;;;;;;11.98;9.68;;;;;;;23.61;46.58;101351.06;5010989;28;20037;-63
2023/06/10 01:47:28;;;;;;;10.90;9.77;;;;;;;23.60;46.23;101349.38;5010646;28;20453;-64
2023/06/10 01:49:53;;;;;;;11.23;10.13;;;;;;;23.58;46.11;101351.38;5009600;28;20041;-64
2023/06/10 01:52:19;;;;;;;10.65;9.65;;;;;;;23.60;46.52;101354.72;5011142;28;20117;-64
2023/06/10 01:54:44;;;;;;;10.57;9.57;;;;;;;23.60;46.23;101352.88;5011095;28;20037;-63
2023/06/10 01:57:10;;;;;;;11.10;10.00;;;;;;;23.60;46.49;101352.03;5010952;28;20137;-64
2023/06/10 01:59:36;;;;;;;11.02;9.93;;;;;;;23.60;46.43;101360.84;5010647;28;20614;-63
2023/06/10 02:02:01;;;;;;;10.98;9.88;;;;;;;23.59;46.20;101355.69;5013722;28;20042;-63
2023/06/10 02:04:27;;;;;;;10.35;9.00;;;;;;;23.60;46.51;101352.88;5014196;28;20497;-64
2023/06/10 02:06:53;;;;;;;10.93;9.83;;;;;;;23.59;46.09;101355.69;5014746;28;20080;-63
2023/06/10 02:09:18;;;;;;;10.90;9.82;;;;;;;23.59;46.37;101361.00;5014350;28;20103;-63
2023/06/10 02:11:44;;;;;;;10.98;9.80;;;;;;;23.58;45.89;101356.69;5014352;28;20446;-63
2023/06/10 02:14:09;;;;;;;10.82;9.80;;;;;;;23.59;46.31;101361.00;5014228;28;20511;-64
2023/06/10 02:16:34;;;;;;;10.20;9.20;;;;;;;23.58;45.87;101357.50;5014063;28;20056;-64
2023/06/10 02:19:00;;;;;;;10.43;9.43;;;;;;;23.59;46.24;101363.66;5013723;28;20124;-64
2023/06/10 02:21:25;;;;;;;11.38;9.82;;;;;;;23.58;45.92;101362.00;5014170;28;20033;-65
2023/06/10 02:23:51;;;;;;;10.50;9.50;;;;;;;23.59;46.39;101364.53;5014092;28;20049;-63
2023/06/10 02:26:16;;;;;;;10.30;9.30;;;;;;;23.58;46.21;101362.84;5013978;28;20045;-63
2023/06/10 02:28:44;;;;;;;10.70;9.40;;;;;;;23.59;45.89;101364.53;5013200;28;20277;-65
2023/06/10 02:31:09;;;;;;;10.35;9.35;;;;;;;23.59;46.25;101364.53;5013959;28;20065;-65
2023/06/10 02:33:35;;;;;;;10.70;9.70;;;;;;;23.57;45.95;101365.66;5013360;28;20636;-65
2023/06/10 02:36:00;;;;;;;10.73;9.73;;;;;;;23.56;46.27;101364.81;5014109;28;20079;-63
2023/06/10 02:38:25;;;;;;;10.05;9.13;;;;;;;23.59;45.76;101371.66;5014033;28;20263;-63
2023/06/10 02:40:51;;;;;;;10.15;9.15;;;;;;;23.58;45.81;101370.00;5013629;28;20037;-63
2023/06/10 02:43:16;;;;;;;10.30;9.20;;;;;;;23.55;46.09;101361.28;5013599;28;20026;-63
2023/06/10 02:45:41;;;;;;;10.70;9.60;;;;;;;23.59;46.08;101364.53;5013817;28;20266;-63
2023/06/10 02:48:06;;;;;;;10.67;9.57;;;;;;;23.58;45.76;101367.31;5012863;28;20306;-64
2023/06/10 02:50:32;;;;;;;10.20;9.20;;;;;;;23.59;45.65;101369.84;5013487;28;20274;-63
2023/06/10 02:52:57;;;;;;;10.15;9.13;;;;;;;23.59;45.82;101367.19;5013700;28;20036;-62
2023/06/10 02:55:26;;;;;;;10.15;9.15;;;;;;;23.52;45.59;101358.09;5013589;28;20029;-63
2023/06/10 02:57:52;;;;;;;9.60;8.70;;;;;;;23.56;45.52;101359.50;5012702;28;20033;-63
2023/06/10 03:00:20;;;;;;;9.75;8.85;;;;;;;23.53;45.87;101360.63;5013480;28;20501;-63
2023/06/10 03:02:45;;;;;;;10.73;9.73;;;;;;;23.57;45.93;101365.66;5013310;28;20044;-64
2023/06/10 03:05:12;;;;;;;10.32;9.32;;;;;;;23.57;45.58;101366.47;5013150;28;20038;-61
2023/06/10 03:07:38;;;;;;;10.25;9.25;;;;;;;23.58;45.46;101365.50;5013159;28;20068;-64
2023/06/10 03:10:05;;;;;;;10.07;9.07;;;;;;;23.55;45.29;101360.47;5012987;28;20065;-64
2023/06/10 03:12:30;;;;;;;9.60;8.70;;;;;;;23.54;45.93;101367.63;5012085;28;20540;-64
2023/06/10 03:14:56;;;;;;;9.73;8.73;;;;;;;23.57;45.79;101373.63;5013172;28;20040;-64
2023/06/10 03:17:21;;;;;;;10.02;9.02;;;;;;;23.53;45.74;101368.59;5013040;28;20045;-64
2023/06/10 03:19:46;;;;;;;10.23;9.17;;;;;;;23.54;45.68;101370.28;5012332;28;20030;-64
2023/06/10 03:22:14;;;;;;;10.02;8.88;;;;;;;23.54;45.52;101380.06;5012879;28;20261;-62
2023/06/10 03:24:43;;;;;;;10.23;9.13;;;;;;;23.54;45.41;101375.59;5012895;28;20081;-63
2023/06/10 03:27:11;;;;;;;9.90;8.90;;;;;;;23.55;45.50;101377.25;5012729;28;20040;-64
2023/06/10 03:29:37;;;;;;;9.90;8.90;;;;;;;23.55;45.45;101371.09;5013236;28;20037;-64
2023/06/10 03:32:03;;;;;;;10.30;9.30;;;;;;;23.55;45.60;101377.25;5012300;28;20432;-63
2023/06/10 03:34:29;;;;;;;9.68;8.77;;;;;;;23.57;45.62;101381.59;5012661;28;20038;-64
2023/06/10 03:36:55;;;;;;;10.00;9.02;;;;;;;23.57;45.33;101381.59;5012236;28;20096;-63
2023/06/10 03:39:20;;;;;;;9.50;8.32;;;;;;;23.55;45.72;101384.41;5012581;28;20041;-64
2023/06/10 03:41:45;;;;;;;9.73;8.73;;;;;;;23.56;45.66;101394.06;5012342;28;20033;-64
2023/06/10 03:44:11;;;;;;;10.37;8.97;;;;;;;23.54;45.81;101391.56;5012374;28;20684;-64
2023/06/10 03:46:36;;;;;;;9.75;8.75;;;;;;;23.54;45.47;101394.22;5012644;28;20262;-64
2023/06/10 03:49:02;;;;;;;9.83;8.93;;;;;;;23.53;45.25;101394.38;5012303;28;20143;-63
2023/06/10 03:51:27;;;;;;;9.93;9.02;;;;;;;23.51;45.86;101386.53;5012350;28;20281;-62
2023/06/10 03:53:53;;;;;;;10.32;9.13;;;;;;;23.53;45.68;101400.53;5012353;28;20030;-63
2023/06/10 03:56:18;;;;;;;10.07;9.07;;;;;;;23.55;45.59;101395.06;5011713;28;20428;-64
2023/06/10 03:58:43;;;;;;;10.60;9.50;;;;;;;23.55;45.54;101397.72;5012453;28;20040;-62
2023/06/10 04:01:08;;;;;;;10.02;9.02;;;;;;;23.57;45.57;101394.91;5002154;28;21241;-63
2023/06/10 04:03:34;;;;;;;9.63;8.73;;;;;;;23.58;45.65;101396.59;5011616;28;20072;-62
2023/06/10 04:05:59;;;;;;;10.35;9.18;;;;;;;23.55;45.51;101389.72;5012387;28;20508;-64
2023/06/10 04:08:25;;;;;;;10.85;9.75;;;;;;;23.53;45.54;101391.72;5012086;28;20169;-63
2023/06/10 04:10:50;;;;;;;10.63;9.52;;;;;;;23.51;45.42;101391.84;5011378;28;20810;-64
2023/06/10 04:13:16;;;;;;;10.13;9.23;;;;;;;23.53;45.96;101395.19;5011524;28;20041;-65
2023/06/10 04:15:41;;;;;;;9.90;8.90;;;;;;;23.53;45.77;101397.84;5011561;28;20501;-64
2023/06/10 04:18:06;;;;;;;9.82;8.82;;;;;;;23.54;45.78;101402.22;5011494;28;20143;-64
2023/06/10 04:20:32;;;;;;;10.03;8.83;;;;;;;23.49;45.99;101393.81;5011882;28;20748;-63
2023/06/10 04:22:57;;;;;;;11.82;9.30;;;;;;;23.51;45.55;101399.84;5011718;28;20271;-63
2023/06/10 04:25:24;;;;;;;10.15;9.10;;;;;;;23.51;45.55;101399.84;5011804;28;20036;-65
2023/06/10 04:27:49;;;;;;;9.82;8.93;;;;;;;23.51;45.59;101407.81;5012124;28;20034;-63
2023/06/10 04:30:16;;;;;;;10.10;8.93;;;;;;;23.51;45.54;101412.28;5010994;28;20036;-63
2023/06/10 04:32:41;;;;;;;10.18;9.18;;;;;;;23.50;45.53;101411.44;5011164;28;20037;-64
2023/06/10 04:35:07;;;;;;;10.18;9.02;;;;;;;23.51;45.83;101409.63;5011456;28;20106;-64
2023/06/10 04:37:32;;;;;;;10.75;9.40;;;;;;;23.54;45.46;101409.31;5011758;28;20040;-63
2023/06/10 04:39:59;;;;;;;12.95;9.30;;;;;;;23.52;45.52;101420.13;5011387;28;21141;-62
2023/06/10 04:42:24;;;;;;;9.75;8.77;;;;;;;23.49;45.45;101411.59;5011344;28;20474;-64
2023/06/10 04:44:49;;;;;;;9.85;8.88;;;;;;;23.51;45.73;101421.13;5011076;28;20080;-64
2023/06/10 04:47:17;;;;;;;10.10;8.97;;;;;;;23.49;46.07;101420.41;5011401;28;20379;-65
2023/06/10 04:49:42;;;;;;;9.80;8.90;;;;;;;23.51;45.72;101414.94;5011144;28;20350;-65
2023/06/10 04:52:07;;;;;;;10.50;9.40;;;;;;;23.48;45.84;101417.88;5011407;28;20175;-64
2023/06/10 04:54:33;;;;;;;9.32;8.43;;;;;;;23.47;45.71;101414.41;5010869;28;20048;-64
2023/06/10 04:56:58;;;;;;;10.13;8.95;;;;;;;23.48;46.20;101417.88;5011564;28;20029;-63
2023/06/10 04:59:23;;;;;;;9.57;8.68;;;;;;;23.51;45.74;101425.59;5011038;28;20030;-64
2023/06/10 05:01:48;;;;;;;9.53;8.63;;;;;;;23.50;46.04;101422.09;5011081;28;20034;-65
2023/06/10 05:04:14;;;;;;;10.10;9.10;;;;;;;23.51;45.70;101428.25;5010897;28;20277;-64
2023/06/10 05:06:39;;;;;;;10.15;9.15;;;;;;;23.47;45.67;101417.06;5011997;28;20263;-63
2023/06/10 05:09:05;;;;;;;9.53;8.53;;;;;;;23.48;46.02;101426.72;5010616;28;20045;-64
2023/06/10 05:11:30;;;;;;;9.73;8.50;;;;;;;23.49;45.92;101416.91;5011058;28;20267;-63
2023/06/10 05:13:55;;;;;;;9.80;8.90;;;;;;;23.48;45.84;101424.06;5010895;28;20049;-64
2023/06/10 05:16:21;;;;;;;10.17;9.10;;;;;;;23.47;45.68;101425.03;5011183;28;20333;-64
2023/06/10 05:18:46;;;;;;;9.98;8.90;;;;;;;23.50;45.84;101426.59;5011291;28;20283;-62
2023/06/10 05:21:11;;;;;;;9.88;8.90;;;;;;;23.49;45.69;101419.56;5010648;28;20037;-64
2023/06/10 05:23:37;;;;;;;10.82;9.10;;;;;;;23.49;46.27;101423.06;5011397;28;20060;-64
2023/06/10 05:26:02;;;;;;;9.75;8.50;;;;;;;23.49;46.17;101422.25;5011944;28;20061;-64
2023/06/10 05:28:27;;;;;;;10.57;9.57;;;;;;;23.50;46.14;101423.94;5010768;28;20026;-64
2023/06/10 05:30:53;;;;;;;9.73;8.82;;;;;;;23.49;46.14;101417.75;5001442;28;20033;-65
2023/06/10 05:33:18;;;;;;;10.45;9.35;;;;;;;23.46;46.02;101412.72;5011188;28;20087;-64
2023/06/10 05:35:43;;;;;;;10.05;9.05;;;;;;;23.50;45.77;101418.59;5012752;28;20039;-65
2023/06/10 05:38:09;;;;;;;10.25;9.25;;;;;;;23.48;45.91;101421.41;5014610;28;20038;-62
2023/06/10 05:40:34;;;;;;;9.67;8.77;;;;;;;23.49;46.01;101422.25;5014041;28;20044;-64
2023/06/10 05:42:59;;;;;;;9.93;8.93;;;;;;;23.49;46.22;101420.41;5014689;28;20276;-63
2023/06/10 05:45:24;;;;;;;10.35;9.32;;;;;;;23.48;46.20;101420.56;5014363;28;20279;-62
2023/06/10 05:47:50;;;;;;;10.30;9.30;;;;;;;23.48;45.93;101418.75;5014653;28;20041;-65
2023/06/10 05:50:15;;;;;;;10.35;9.25;;;;;;;23.50;46.01;101418.59;5014531;28;20278;-63
2023/06/10 05:52:41;;;;;;;10.40;9.30;;;;;;;23.51;46.13;101426.44;5014518;28;20537;-63
2023/06/10 05:55:07;;;;;;;9.70;8.70;;;;;;;23.54;45.88;101427.94;5014467;28;20033;-65
2023/06/10 05:57:32;;;;;;;11.90;8.60;;;;;;;23.57;45.78;101425.00;5014771;28;20486;-64
2023/06/10 05:59:57;;;;;;;11.70;8.10;;;;;;;23.60;45.75;101423.88;5014056;28;20033;-64
2023/06/10 06:02:23;;;;;;;10.67;8.80;;;;;;;23.58;45.32;101425.84;5014244;28;20068;-65
2023/06/10 06:04:48;;;;;;;10.13;7.85;;;;;;;23.58;45.64;101431.19;5013812;28;20345;-64
2023/06/10 06:07:14;;;;;;;9.63;8.00;;;;;;;23.55;45.50;101433.13;5014501;28;20029;-66
2023/06/10 06:09:39;;;;;;;11.57;8.32;;;;;;;23.54;45.58;101431.47;5014078;28;20353;-64
2023/06/10 06:12:07;;;;;;;12.68;8.45;;;;;;;23.50;46.34;101429.25;5014602;28;20080;-65
2023/06/10 06:14:32;;;;;;;9.60;8.65;;;;;;;23.49;46.19;101431.03;5013939;28;20738;-64
2023/06/10 06:16:58;;;;;;;9.65;8.65;;;;;;;23.50;46.05;101427.41;5013751;28;20505;-64
2023/06/10 06:19:23;;;;;;;10.20;8.32;;;;;;;23.55;45.89;101435.78;5013798;28;20712;-64
2023/06/10 06:21:48;;;;;;;9.45;8.20;;;;;;;23.56;45.60;101426.00;5013414;28;20048;-65
2023/06/10 06:24:16;;;;;;;9.90;8.37;;;;;;;23.60;44.87;101423.88;5014471;28;20033;-62
2023/06/10 06:26:41;;;;;;;11.02;8.27;;;;;;;23.59;44.90;101432.84;5014022;28;20282;-63
2023/06/10 06:29:06;;;;;;;9.30;8.10;;;;;;;23.55;45.35;101430.47;5028994;28;20620;-64
2023/06/10 06:31:32;;;;;;;9.75;8.02;;;;;;;23.57;45.54;101432.16;5013386;28;20032;-63
2023/06/10 06:33:57;;;;;;;10.73;8.00;;;;;;;23.57;45.05;101434.81;5013612;28;20041;-64
2023/06/10 06:36:22;;;;;;;12.02;7.85;;;;;;;23.55;45.34;101433.13;5013998;28;20033;-67
2023/06/10 06:38:48;;;;;;;9.50;7.90;;;;;;;23.57;45.27;101437.47;5014030;28;20038;-65
2023/06/10 06:41:13;;;;;;;13.53;8.30;;;;;;;23.57;45.36;101440.13;5013412;28;20056;-65
2023/06/10 06:43:38;;;;;;;11.07;7.25;;;;;;;23.53;45.75;101443.09;5013751;28;20278;-63
2023/06/10 06:46:03;;;;;;;12.07;8.07;;;;;;;23.51;45.75;101434.41;5028535;28;20038;-65
2023/06/10 06:48:29;;;;;;;12.50;8.05;;;;;;;23.57;45.49;101445.44;5013641;28;20477;-64
2023/06/10 06:50:56;;;;;;;13.40;8.20;;;;;;;23.55;45.72;101438.44;5013000;28;20043;-64
2023/06/10 06:53:21;;;;;;;9.25;7.57;;;;;;;23.54;46.25;101449.22;5013489;28;20690;-66
2023/06/10 06:55:47;;;;;;;11.95;8.00;;;;;;;23.53;46.37;101440.41;5013893;28;20789;-66
2023/06/10 06:58:12;;;;;;;10.48;7.65;;;;;;;23.52;46.27;101443.22;5013211;28;20789;-64
2023/06/10 07:00:37;;;;;;;11.32;7.35;;;;;;;23.51;46.32;101438.88;5013259;28;20037;-64
2023/06/10 07:03:03;;;;;;;10.17;7.30;;;;;;;23.48;46.35;101440.03;5012888;28;20792;-67
2023/06/10 07:05:28;;;;;;;10.52;7.55;;;;;;;23.52;46.86;101452.03;5008706;28;20259;-66
2023/06/10 07:07:55;;;;;;;8.38;6.90;;;;;;;23.52;46.50;101453.88;5012771;28;20521;-63
2023/06/10 07:10:22;;;;;;;11.07;7.13;;;;;;;23.54;46.84;101450.09;5013228;28;20088;-64
2023/06/10 07:12:48;;;;;;;9.45;7.43;;;;;;;23.53;46.85;101445.75;5013074;28;20037;-66
2023/06/10 07:15:13;;;;;;;9.45;7.13;;;;;;;23.55;46.87;101449.09;5012216;28;20056;-64
2023/06/10 07:17:39;;;;;;;9.00;6.88;;;;;;;23.55;46.59;101453.56;5013036;28;20065;-65
2023/06/10 07:20:04;;;;;;;8.88;7.15;;;;;;;23.54;46.59;101460.72;5012323;28;20442;-65
2023/06/10 07:22:30;;;;;;;9.95;7.10;;;;;;;23.55;46.80;101459.72;5012808;28;20036;-66
2023/06/10 07:24:55;;;;;;;11.57;7.50;;;;;;;23.54;46.48;101458.06;5012464;28;20044;-63
2023/06/10 07:27:20;;;;;;;10.07;7.40;;;;;;;23.57;47.25;101464.06;5012844;28;20260;-63
2023/06/10 07:29:46;;;;;;;9.43;7.93;;;;;;;23.57;47.21;101466.72;5012404;28;20490;-62
2023/06/10 07:32:11;;;;;;;9.03;7.10;;;;;;;23.53;47.53;101458.22;5013024;28;20068;-65
2023/06/10 07:34:36;;;;;;;10.07;7.73;;;;;;;23.55;47.72;101459.72;5012447;28;20330;-65
2023/06/10 07:37:01;;;;;;;9.77;7.17;;;;;;;23.54;47.76;101463.38;5012123;28;20256;-65
2023/06/10 07:39:27;;;;;;;11.60;7.65;;;;;;;23.53;47.73;101461.69;5012320;28;20359;-63
2023/06/10 07:41:53;;;;;;;9.50;7.73;;;;;;;23.57;47.37;101462.25;5012237;28;20032;-66
2023/06/10 07:44:19;;;;;;;16.42;7.90;;;;;;;23.61;47.59;101466.31;5012338;28;20270;-64
2023/06/10 07:46:45;;;;;;;11.13;8.32;;;;;;;23.61;47.57;101460.16;5012666;28;20038;-63
2023/06/10 07:49:10;;;;;;;10.48;7.18;;;;;;;23.62;47.96;101462.63;5012104;28;20033;-62
2023/06/10 07:51:36;;;;;;;9.77;7.40;;;;;;;23.62;47.77;101467.13;5012480;28;20037;-64
2023/06/10 07:54:01;;;;;;;8.70;7.07;;;;;;;23.64;47.68;101465.16;5012673;28;20040;-62
2023/06/10 07:56:27;;;;;;;9.68;7.38;;;;;;;23.62;48.00;101467.13;5012437;28;20034;-64
2023/06/10 07:58:52;;;;;;;9.73;7.10;;;;;;;23.66;47.67;101465.88;5011568;28;20029;-65
2023/06/10 08:01:17;;;;;;;10.23;7.27;;;;;;;23.68;47.94;101469.22;5009830;28;20037;-65
2023/06/10 08:03:43;;;;;;;9.15;6.85;;;;;;;23.79;47.53;101460.19;5011206;28;20033;-65
2023/06/10 08:06:11;;;;;;;9.63;6.80;;;;;;;23.86;47.17;101459.50;5011244;28;20053;-64
2023/06/10 08:08:41;;;;;;;10.07;6.97;;;;;;;23.90;46.95;101458.19;5010946;28;20670;-68
2023/06/10 08:11:07;;;;;;;10.15;6.45;;;;;;;23.98;47.03;101469.94;5010836;28;20533;-59
2023/06/10 08:13:32;;;;;;;10.18;6.80;;;;;;;23.99;46.77;101463.63;5011495;28;20069;-65
2023/06/10 08:15:57;;;;;;;9.10;6.00;;;;;;;24.01;46.51;101465.16;5010732;28;20139;-63
2023/06/10 08:18:22;;;;;;;7.80;6.30;;;;;;;24.03;46.30;101465.84;5011554;28;20268;-62
2023/06/10 08:20:48;;;;;;;8.57;6.63;;;;;;;24.03;46.25;101465.84;5010252;28;20482;-64
2023/06/10 08:23:14;;;;;;;8.07;6.40;;;;;;;24.05;46.03;101476.34;5011261;28;20340;-64
2023/06/10 08:25:39;;;;;;;9.27;6.38;;;;;;;24.05;46.42;101463.88;5011048;28;20532;-64
2023/06/10 08:28:04;;;;;;;8.13;6.63;;;;;;;24.08;46.14;101465.38;5011359;28;20493;-64
2023/06/10 08:30:30;;;;;;;8.37;6.50;;;;;;;24.06;46.20;101454.88;5010646;28;20274;-65
2023/06/10 08:32:55;;;;;;;8.13;6.53;;;;;;;24.09;45.80;101461.75;5010847;28;20267;-65
2023/06/10 08:35:20;;;;;;;8.38;6.40;;;;;;;24.10;46.12;101463.44;5010295;28;20037;-66
2023/06/10 08:37:46;;;;;;;9.47;6.23;;;;;;;24.07;46.08;101461.06;5010671;28;20474;-65
2023/06/10 08:40:12;;;;;;;7.47;6.13;;;;;;;24.11;45.77;101459.78;5010811;28;20281;-64
2023/06/10 08:42:45;;;;;;;8.52;6.80;;;;;;;24.11;45.80;101466.94;5010737;28;20041;-65
2023/06/10 08:45:17;;;;;;;7.37;6.07;;;;;;;24.11;46.46;101461.59;5008873;28;20477;-64
2023/06/10 08:47:44;;;;;;;9.10;6.43;;;;;;;24.14;46.56;101458.66;5010461;28;20095;-62
2023/06/10 08:50:09;;;;;;;11.25;6.53;;;;;;;24.12;46.22;101464.13;5010877;28;20033;-63
2023/06/10 08:52:37;;;;;;;7.18;6.07;;;;;;;24.11;46.57;101456.28;5010555;28;20033;-67
2023/06/10 08:55:19;;;;;;;8.60;5.65;;;;;;;24.14;46.03;101463.97;5009840;28;20040;-65
2023/06/10 08:57:45;;;;;;;8.18;6.30;;;;;;;24.16;46.27;101462.00;5010480;28;20508;-64
2023/06/10 09:00:12;;;;;;;7.40;5.90;;;;;;;24.20;46.41;101466.88;5009857;28;20029;-63
2023/06/10 09:02:38;;;;;;;8.27;5.78;;;;;;;24.20;46.05;101458.06;5010380;28;20094;-62
2023/06/10 09:05:04;;;;;;;9.38;6.55;;;;;;;24.11;47.06;101459.78;5010214;28;20393;-63
2023/06/10 09:07:35;;;;;;;7.57;6.25;;;;;;;24.04;47.60;101459.53;5011620;28;20045;-64
2023/06/10 09:10:03;;;;;;;8.13;6.10;;;;;;;24.04;47.25;101459.53;5011569;28;20037;-63
2023/06/10 09:12:29;;;;;;;9.05;6.75;;;;;;;24.04;47.28;101453.38;5014192;28;20045;-64
2023/06/10 09:14:54;;;;;;;8.10;6.47;;;;;;;24.00;47.17;101457.31;5014795;28;20478;-64
2023/06/10 09:17:20;;;;;;;9.18;6.75;;;;;;;24.00;47.78;101455.47;5015302;28;20084;-65
2023/06/10 09:19:46;;;;;;;11.10;7.47;;;;;;;23.97;47.74;101453.13;5015198;28;20038;-64
2023/06/10 09:22:11;;;;;;;9.48;5.97;;;;;;;23.95;47.41;101455.09;5012984;28;20097;-63
2023/06/10 09:24:38;;;;;;;8.75;6.38;;;;;;;23.96;47.19;101459.44;5014975;28;20354;-63
2023/06/10 09:27:06;;;;;;;11.85;6.28;;;;;;;23.95;47.55;101451.59;5015094;28;20037;-64
2023/06/10 09:29:32;;;;;;;11.68;5.93;;;;;;;24.06;47.13;101457.56;5012368;28;20431;-63
2023/06/10 09:31:58;;;;;;;9.70;5.90;;;;;;;24.14;46.71;101461.31;5014041;28;20029;-63
2023/06/10 09:34:25;;;;;;;7.00;5.50;;;;;;;24.15;46.49;101463.81;5012695;28;20037;-65
2023/06/10 09:36:51;;;;;;;9.93;5.90;;;;;;;24.17;46.48;101453.03;5014622;28;20504;-65
2023/06/10 09:39:18;;;;;;;7.85;6.03;;;;;;;24.20;46.20;101452.72;5014070;28;20033;-68
2023/06/10 09:41:45;;;;;;;8.52;5.78;;;;;;;24.20;46.21;101455.38;5013719;28;20030;-66
2023/06/10 09:44:19;;;;;;;8.25;5.45;;;;;;;24.19;46.19;101449.19;5014141;28;20040;-62
2023/06/10 09:46:47;;;;;;;7.65;6.18;;;;;;;24.17;46.58;101453.84;5012869;28;20038;-62
2023/06/10 09:49:13;;;;;;;8.60;5.82;;;;;;;24.12;46.73;101448.16;5013594;28;20037;-63
2023/06/10 09:51:48;;;;;;;8.90;6.25;;;;;;;24.07;46.92;101448.59;5014117;28;20060;-63
2023/06/10 09:54:14;;;;;;;7.20;6.00;;;;;;;24.08;46.54;101447.63;5014437;28;20465;-63
2023/06/10 09:56:42;;;;;;;8.30;5.95;;;;;;;24.06;46.57;101444.25;5014016;28;20513;-66
2023/06/10 09:59:08;;;;;;;7.32;6.13;;;;;;;24.06;46.39;101446.06;5014025;28;20033;-64
2023/06/10 10:01:33;;;;;;;7.05;5.80;;;;;;;24.05;46.68;101449.72;5013688;28;20033;-63
2023/06/10 10:04:00;;;;;;;7.97;6.22;;;;;;;24.05;46.67;101441.72;5014495;28;20030;-63
2023/06/10 10:06:26;;;;;;;10.65;5.95;;;;;;;24.05;46.13;101439.06;5013956;28;20455;-67
2023/06/10 10:08:51;;;;;;;8.85;6.25;;;;;;;23.97;46.27;101434.47;5014911;28;20367;-66
2023/06/10 10:11:21;;;;;;;9.75;6.03;;;;;;;23.97;46.34;101428.34;5013608;28;20103;-70
2023/06/10 10:13:48;;;;;;;8.02;5.55;;;;;;;23.94;47.17;101432.16;5013815;28;20038;-67
2023/06/10 10:16:30;;;;;;;9.05;6.13;;;;;;;23.90;47.07;101426.25;5013201;28;20057;-68
2023/06/10 10:18:58;;;;;;;8.32;5.65;;;;;;;24.06;46.46;101433.59;5012339;28;20038;-63
2023/06/10 10:21:29;;;;;;;8.85;6.10;;;;;;;24.11;46.19;101435.81;5010826;28;20040;-63
2023/06/10 10:24:22;;;;;;;7.43;5.55;;;;;;;24.03;46.55;101425.06;5012670;28;20477;-65
2023/06/10 10:26:50;;;;;;;7.90;5.68;;;;;;;23.98;46.82;101427.34;5010390;28;20046;-65
2023/06/10 10:29:30;;;;;;;8.32;5.88;;;;;;;23.96;47.36;101432.81;5014097;28;20041;-65
2023/06/10 10:31:59;;;;;;;9.18;5.88;;;;;;;23.96;46.95;101432.81;5013483;28;20530;-64
2023/06/10 10:34:32;;;;;;;9.15;5.85;;;;;;;23.96;47.49;101432.81;5013645;28;20129;-65
2023/06/10 10:36:57;;;;;;;8.80;5.70;;;;;;;23.91;47.63;101419.13;5013025;28;20080;-64
2023/06/10 10:39:24;;;;;;;9.45;5.93;;;;;;;23.90;47.25;101426.25;5013056;28;20120;-64
2023/06/10 10:41:50;;;;;;;7.45;5.47;;;;;;;23.90;47.54;101433.41;5013663;28;20039;-67
2023/06/10 10:44:16;;;;;;;11.18;5.70;;;;;;;23.91;47.71;101427.13;5013764;28;20038;-66
2023/06/10 10:46:48;;;;;;;8.43;5.78;;;;;;;23.89;47.85;101418.44;5012906;28;20037;-64
2023/06/10 10:49:15;;;;;;;9.50;5.93;;;;;;;23.90;47.92;101420.09;5012842;28;20065;-66
2023/06/10 10:51:56;;;;;;;8.95;5.45;;;;;;;24.05;47.50;101420.44;5011261;28;20030;-65
2023/06/10 10:54:32;;;;;;;9.90;5.80;;;;;;;24.12;47.29;101423.34;5012364;28;20130;-65
2023/06/10 10:57:11;;;;;;;7.40;5.07;;;;;;;24.21;47.08;101425.09;5012664;28;20074;-65
2023/06/10 10:59:48;;;;;;;8.05;5.45;;;;;;;24.23;47.12;101426.63;5011876;28;20437;-63
2023/06/10 11:02:33;;;;;;;7.75;5.25;;;;;;;24.27;46.72;101416.50;5012818;28;20835;-63
2023/06/10 11:05:00;;;;;;;7.70;5.50;;;;;;;24.30;46.53;101420.69;5012901;28;20106;-64
2023/06/10 11:07:25;;;;;;;9.18;5.43;;;;;;;24.33;46.54;101415.06;5012228;28;20049;-66
2023/06/10 11:10:11;;;;;;;8.88;5.20;;;;;;;24.32;46.51;101413.38;5012051;28;20038;-68
2023/06/10 11:12:45;;;;;;;10.05;6.03;;;;;;;24.26;47.13;101414.84;5011563;28;20444;-63
2023/06/10 11:15:12;;;;;;;9.85;6.00;;;;;;;24.20;46.80;101413.59;5010883;28;20044;-64
2023/06/10 11:17:37;;;;;;;7.75;5.57;;;;;;;24.18;46.67;101415.59;5011835;28;20092;-63
2023/06/10 11:20:03;;;;;;;8.48;5.57;;;;;;;24.16;46.61;101398.91;5012456;28;20033;-64